createdAt,value
2018-09-02T00:03:00.000Z,99139
2018-09-02T00:08:00.000Z,99153
2018-09-02T00:13:00.000Z,99136
2018-09-02T00:18:00.000Z,99141
2018-09-02T00:23:00.000Z,99129
2018-09-02T00:28:00.000Z,99132
2018-09-02T00:33:00.000Z,99123
2018-09-02T00:38:00.000Z,99125
2018-09-02T00:43:00.000Z,99124
2018-09-02T00:48:00.000Z,99129
2018-09-02T00:53:00.000Z,99127
2018-09-02T00:58:00.000Z,99135
2018-09-02T01:03:00.000Z,99135
2018-09-02T01:08:00.000Z,99127
2018-09-02T01:13:00.000Z,99113
2018-09-02T01:18:00.000Z,99115
2018-09-02T01:23:00.000Z,99123
2018-09-02T01:28:00.000Z,99118
2018-09-02T01:33:00.000Z,99119
2018-09-02T01:38:00.000Z,99099
2018-09-02T01:43:00.000Z,99093
2018-09-02T01:48:00.000Z,99089
2018-09-02T01:53:00.000Z,99087
2018-09-02T01:58:00.000Z,99084
2018-09-02T02:03:00.000Z,99091
2018-09-02T02:08:00.000Z,99090
2018-09-02T02:13:00.000Z,99087
2018-09-02T02:18:00.000Z,99078
2018-09-02T02:23:00.000Z,99089
2018-09-02T02:28:00.000Z,99091
2018-09-02T02:33:00.000Z,99093
2018-09-02T02:38:00.000Z,99083
2018-09-02T02:43:00.000Z,99084
2018-09-02T02:48:00.000Z,99068
2018-09-02T02:54:00.000Z,99076
2018-09-02T02:59:00.000Z,99087
2018-09-02T03:04:00.000Z,99077
2018-09-02T03:09:00.000Z,99094
2018-09-02T03:14:00.000Z,99081
2018-09-02T03:19:00.000Z,99091
2018-09-02T03:24:00.000Z,99076
2018-09-02T03:29:00.000Z,99076
2018-09-02T03:34:00.000Z,99079
2018-09-02T03:39:00.000Z,99072
2018-09-02T03:44:00.000Z,99072
2018-09-02T03:49:00.000Z,99090
2018-09-02T03:54:00.000Z,99084
2018-09-02T03:59:00.000Z,99076
2018-09-02T04:04:00.000Z,99090
2018-09-02T04:09:00.000Z,99082
2018-09-02T04:14:00.000Z,99081
2018-09-02T04:19:00.000Z,99096
2018-09-02T04:24:00.000Z,99114
2018-09-02T04:29:00.000Z,99128
2018-09-02T04:34:00.000Z,99105
2018-09-02T04:39:00.000Z,99118
2018-09-02T04:44:00.000Z,99115
2018-09-02T04:49:00.000Z,99123
2018-09-02T04:54:00.000Z,99116
2018-09-02T04:59:00.000Z,99115
2018-09-02T05:04:00.000Z,99132
2018-09-02T05:09:00.000Z,99132
2018-09-02T05:14:00.000Z,99127
2018-09-02T05:19:00.000Z,99133
2018-09-02T05:24:00.000Z,99126
2018-09-02T05:29:00.000Z,99140
2018-09-02T05:34:00.000Z,99137
2018-09-02T05:39:00.000Z,99153
2018-09-02T05:44:00.000Z,99149
2018-09-02T05:49:00.000Z,99141
2018-09-02T05:54:00.000Z,99146
2018-09-02T05:59:00.000Z,99134
2018-09-02T06:04:00.000Z,99131
2018-09-02T06:09:00.000Z,99111
2018-09-02T06:14:00.000Z,99124
2018-09-02T06:19:00.000Z,99141
2018-09-02T06:24:00.000Z,99128
2018-09-02T06:29:00.000Z,99132
2018-09-02T06:34:00.000Z,99149
2018-09-02T06:39:00.000Z,99153
2018-09-02T06:44:00.000Z,99169
2018-09-02T06:49:00.000Z,99188
2018-09-02T06:54:00.000Z,99199
2018-09-02T06:59:00.000Z,99194
2018-09-02T07:04:00.000Z,99209
2018-09-02T07:09:00.000Z,99216
2018-09-02T07:14:00.000Z,99201
2018-09-02T07:19:00.000Z,99203
2018-09-02T07:24:00.000Z,99200
2018-09-02T07:29:00.000Z,99192
2018-09-02T07:34:00.000Z,99195
2018-09-02T07:39:00.000Z,99206
2018-09-02T07:44:00.000Z,99208
2018-09-02T07:49:00.000Z,99207
2018-09-02T07:54:00.000Z,99203
2018-09-02T07:59:00.000Z,99197
2018-09-02T08:04:00.000Z,99206
2018-09-02T08:09:00.000Z,99202
2018-09-02T08:14:00.000Z,99197
2018-09-02T08:19:00.000Z,99193
2018-09-02T08:24:00.000Z,99206
2018-09-02T08:29:00.000Z,99195
2018-09-02T08:34:00.000Z,99195
2018-09-02T08:39:00.000Z,99209
2018-09-02T08:44:00.000Z,99202
2018-09-02T08:49:00.000Z,99191
2018-09-02T08:55:00.000Z,99214
2018-09-02T09:00:00.000Z,99204
2018-09-02T09:05:00.000Z,99196
2018-09-02T09:10:00.000Z,99194
2018-09-02T09:15:00.000Z,99188
2018-09-02T09:20:00.000Z,99186
2018-09-02T09:25:00.000Z,99195
2018-09-02T09:30:00.000Z,99195
2018-09-02T09:35:00.000Z,99188
2018-09-02T09:40:00.000Z,99214
2018-09-02T09:45:00.000Z,99223
2018-09-02T09:50:00.000Z,99237
2018-09-02T09:55:00.000Z,99243
2018-09-02T10:00:00.000Z,99247
2018-09-02T10:05:00.000Z,99239
2018-09-02T10:10:00.000Z,99243
2018-09-02T10:15:00.000Z,99231
2018-09-02T10:20:00.000Z,99239
2018-09-02T10:25:00.000Z,99237
2018-09-02T10:30:00.000Z,99264
2018-09-02T10:35:00.000Z,99250
2018-09-02T10:40:00.000Z,99250
2018-09-02T10:45:00.000Z,99235
2018-09-02T10:50:00.000Z,99199
2018-09-02T10:55:00.000Z,99170
2018-09-02T11:00:00.000Z,99172
2018-09-02T11:05:00.000Z,99153
2018-09-02T11:10:00.000Z,99185
2018-09-02T11:15:00.000Z,99186
2018-09-02T11:20:00.000Z,99166
2018-09-02T11:25:00.000Z,99195
2018-09-02T11:30:00.000Z,99174
2018-09-02T11:35:00.000Z,99165
2018-09-02T11:40:00.000Z,99160
2018-09-02T11:45:00.000Z,99158
2018-09-02T11:50:00.000Z,99147
2018-09-02T11:55:00.000Z,99164
2018-09-02T12:00:00.000Z,99157
2018-09-02T12:05:00.000Z,99165
2018-09-02T12:10:00.000Z,99155
2018-09-02T12:15:00.000Z,99164
2018-09-02T12:20:00.000Z,99162
2018-09-02T12:25:00.000Z,99159
2018-09-02T12:30:00.000Z,99147
2018-09-02T12:35:00.000Z,99133
2018-09-02T12:40:00.000Z,99133
2018-09-02T12:45:00.000Z,99138
2018-09-02T12:50:00.000Z,99136
2018-09-02T12:55:00.000Z,99125
2018-09-02T13:00:00.000Z,99130
2018-09-02T13:05:00.000Z,99131
2018-09-02T13:10:00.000Z,99142
2018-09-02T13:15:00.000Z,99165
2018-09-02T13:20:00.000Z,99152
2018-09-02T13:25:00.000Z,99149
2018-09-02T13:30:00.000Z,99139
2018-09-02T13:35:00.000Z,99122
2018-09-02T13:40:00.000Z,99109
2018-09-02T13:45:00.000Z,99109
2018-09-02T13:50:00.000Z,99113
2018-09-02T13:55:00.000Z,99120
2018-09-02T14:00:00.000Z,99130
2018-09-02T14:05:00.000Z,99126
2018-09-02T14:10:00.000Z,99117
2018-09-02T14:15:00.000Z,99150
2018-09-02T14:20:00.000Z,99141
2018-09-02T14:25:00.000Z,99120
2018-09-02T14:30:00.000Z,99083
2018-09-02T14:35:00.000Z,99073
2018-09-02T14:40:00.000Z,99076
2018-09-02T14:45:00.000Z,99070
2018-09-02T14:50:00.000Z,99076
2018-09-02T14:55:00.000Z,99076
2018-09-02T15:00:00.000Z,99074
2018-09-02T15:06:00.000Z,99068
2018-09-02T15:11:00.000Z,99061
2018-09-02T15:16:00.000Z,99071
2018-09-02T15:21:00.000Z,99069
2018-09-02T15:26:00.000Z,99066
2018-09-02T15:31:00.000Z,99066
2018-09-02T15:36:00.000Z,99066
2018-09-02T15:41:00.000Z,99060
2018-09-02T15:46:00.000Z,99059
2018-09-02T15:51:00.000Z,99061
2018-09-02T15:56:00.000Z,99055
2018-09-02T16:01:00.000Z,99055
2018-09-02T16:06:00.000Z,99050
2018-09-02T16:11:00.000Z,99043
2018-09-02T16:16:00.000Z,99039
2018-09-02T16:21:00.000Z,99047
2018-09-02T16:26:00.000Z,99045
2018-09-02T16:31:00.000Z,99048
2018-09-02T16:36:00.000Z,99042
2018-09-02T16:41:00.000Z,99042
2018-09-02T16:46:00.000Z,99032
2018-09-02T16:51:00.000Z,99024
2018-09-02T16:56:00.000Z,99009
2018-09-02T17:01:00.000Z,99022
2018-09-02T17:06:00.000Z,99018
2018-09-02T17:11:00.000Z,99015
2018-09-02T17:16:00.000Z,99015
2018-09-02T17:21:00.000Z,99002
2018-09-02T17:26:00.000Z,98991
2018-09-02T17:31:00.000Z,98992
2018-09-02T17:36:00.000Z,98980
2018-09-02T17:41:00.000Z,98982
2018-09-02T17:46:00.000Z,98975
2018-09-02T17:51:00.000Z,98981
2018-09-02T17:56:00.000Z,98974
2018-09-02T18:01:00.000Z,98972
2018-09-02T18:06:00.000Z,98956
2018-09-02T18:11:00.000Z,98961
2018-09-02T18:16:00.000Z,98955
2018-09-02T18:21:00.000Z,98967
2018-09-02T18:26:00.000Z,98971
2018-09-02T18:31:00.000Z,98972
2018-09-02T18:36:00.000Z,98975
2018-09-02T18:41:00.000Z,98975
2018-09-02T18:46:00.000Z,98980
2018-09-02T18:51:00.000Z,98992
2018-09-02T18:56:00.000Z,98994
2018-09-02T19:01:00.000Z,98996
2018-09-02T19:06:00.000Z,98986
2018-09-02T19:11:00.000Z,98990
2018-09-02T19:16:00.000Z,98981
2018-09-02T19:21:00.000Z,98964
2018-09-02T19:26:00.000Z,98957
2018-09-02T19:31:00.000Z,98936
2018-09-02T19:36:00.000Z,98937
2018-09-02T19:41:00.000Z,98929
2018-09-02T19:46:00.000Z,98925
2018-09-02T19:51:00.000Z,98934
2018-09-02T19:56:00.000Z,98924
2018-09-02T20:01:00.000Z,98911
2018-09-02T20:06:00.000Z,98894
2018-09-02T20:11:00.000Z,98888
2018-09-02T20:16:00.000Z,98902
2018-09-02T20:21:00.000Z,98883
2018-09-02T20:26:00.000Z,98887
2018-09-02T20:31:00.000Z,98899
2018-09-02T20:36:00.000Z,98904
2018-09-02T20:41:00.000Z,98889
2018-09-02T20:46:00.000Z,98931
2018-09-02T20:51:00.000Z,98949
2018-09-02T20:56:00.000Z,98938
2018-09-02T21:01:00.000Z,98940
2018-09-02T21:06:00.000Z,99036
2018-09-02T21:11:00.000Z,98915
2018-09-02T21:17:00.000Z,98876
2018-09-02T21:22:00.000Z,98918
2018-09-02T21:27:00.000Z,98849
2018-09-02T21:32:00.000Z,98879
2018-09-02T21:37:00.000Z,98858
2018-09-02T21:42:00.000Z,98866
2018-09-02T21:47:00.000Z,98877
2018-09-02T21:52:00.000Z,98865
2018-09-02T21:57:00.000Z,98865
2018-09-02T22:02:00.000Z,98853
2018-09-02T22:07:00.000Z,98855
2018-09-02T22:12:00.000Z,98843
2018-09-02T22:17:00.000Z,98827
2018-09-02T22:22:00.000Z,98812
2018-09-02T22:27:00.000Z,98830
2018-09-02T22:32:00.000Z,98876
2018-09-02T22:37:00.000Z,98875
2018-09-02T22:42:00.000Z,98856
2018-09-02T22:47:00.000Z,98853
2018-09-02T22:52:00.000Z,98865
2018-09-02T22:57:00.000Z,98860
2018-09-02T23:02:00.000Z,98861
2018-09-02T23:07:00.000Z,98880
2018-09-02T23:12:00.000Z,98877
2018-09-02T23:17:00.000Z,98866
2018-09-02T23:22:00.000Z,98877
2018-09-02T23:27:00.000Z,98874
2018-09-02T23:32:00.000Z,98883
2018-09-02T23:37:00.000Z,98887
2018-09-02T23:42:00.000Z,98894
2018-09-02T23:47:00.000Z,98896
2018-09-02T23:52:00.000Z,98890
2018-09-02T23:57:00.000Z,98889
